createdAt,value
2023-05-06T00:01:01.951Z,34.55
2023-05-06T00:03:28.921Z,35.00
2023-05-06T00:05:56.367Z,42.97
2023-05-06T00:08:23.231Z,36.17
2023-05-06T00:10:50.090Z,40.22
2023-05-06T00:13:16.939Z,37.05
2023-05-06T00:15:43.718Z,40.47
2023-05-06T00:18:10.596Z,42.53
2023-05-06T00:20:37.370Z,43.55
2023-05-06T00:23:04.108Z,44.22
2023-05-06T00:25:31.003Z,39.58
2023-05-06T00:27:57.969Z,37.65
2023-05-06T00:30:25.640Z,43.33
2023-05-06T00:32:54.734Z,51.60
2023-05-06T00:35:21.592Z,48.42
2023-05-06T00:37:57.599Z,48.75
2023-05-06T00:40:24.478Z,51.83
2023-05-06T00:42:51.268Z,46.42
2023-05-06T00:45:18.148Z,43.80
2023-05-06T00:47:44.956Z,43.67
2023-05-06T00:50:11.953Z,59.58
2023-05-06T00:52:38.795Z,44.47
2023-05-06T00:55:05.970Z,43.63
2023-05-06T00:57:32.798Z,46.08
2023-05-06T00:59:59.540Z,46.03
2023-05-06T01:02:33.199Z,49.20
2023-05-06T01:05:07.741Z,49.95
2023-05-06T01:07:34.749Z,54.25
2023-05-06T01:10:07.423Z,46.75
2023-05-06T01:12:38.079Z,49.55
2023-05-06T01:15:09.558Z,51.00
2023-05-06T01:17:40.239Z,56.97
2023-05-06T01:20:10.293Z,59.58
2023-05-06T01:22:37.762Z,50.92
2023-05-06T01:25:05.162Z,53.17
2023-05-06T01:27:31.886Z,54.53
2023-05-06T01:29:59.327Z,59.33
2023-05-06T01:32:41.660Z,48.53
2023-05-06T01:35:21.813Z,60.40
2023-05-06T01:38:17.794Z,51.95
2023-05-06T01:40:45.182Z,51.03
2023-05-06T01:43:13.312Z,55.90
2023-05-06T01:45:42.501Z,51.65
2023-05-06T01:48:09.652Z,60.80
2023-05-06T01:50:36.844Z,52.03
2023-05-06T01:53:03.720Z,56.75
2023-05-06T01:55:30.579Z,58.90
2023-05-06T01:57:57.430Z,52.97
2023-05-06T02:00:25.526Z,57.00
2023-05-06T02:02:52.619Z,49.30
2023-05-06T02:05:19.596Z,55.13
2023-05-06T02:07:51.263Z,47.70
2023-05-06T02:10:19.468Z,53.15
2023-05-06T02:12:51.225Z,60.72
2023-05-06T02:15:18.003Z,47.60
2023-05-06T02:17:44.848Z,51.08
2023-05-06T02:20:11.687Z,50.55
2023-05-06T02:22:38.513Z,52.40
2023-05-06T02:25:06.195Z,56.22
2023-05-06T02:27:32.930Z,55.42
2023-05-06T02:29:59.685Z,59.60
2023-05-06T02:32:26.441Z,54.08
2023-05-06T02:34:54.164Z,52.38
2023-05-06T02:37:22.266Z,56.00
2023-05-06T02:39:49.029Z,50.72
2023-05-06T02:42:16.207Z,57.45
2023-05-06T02:44:43.015Z,50.88
2023-05-06T02:47:09.722Z,59.83
2023-05-06T02:49:37.710Z,53.97
2023-05-06T02:52:04.825Z,53.60
2023-05-06T02:54:31.739Z,50.10
2023-05-06T02:56:58.549Z,51.47
2023-05-06T02:59:25.484Z,54.35
2023-05-06T03:01:52.236Z,50.88
2023-05-06T03:04:19.151Z,55.97
2023-05-06T03:06:45.946Z,47.25
2023-05-06T03:09:12.729Z,44.00
2023-05-06T03:11:39.936Z,46.38
2023-05-06T03:14:07.515Z,50.55
2023-05-06T03:16:35.406Z,52.97
2023-05-06T03:19:03.804Z,46.08
2023-05-06T03:21:31.963Z,51.30
2023-05-06T03:23:59.428Z,46.22
2023-05-06T03:26:28.298Z,49.13
2023-05-06T03:28:55.140Z,53.83
2023-05-06T03:31:22.853Z,42.88
2023-05-06T03:33:50.544Z,52.63
2023-05-06T03:36:18.158Z,47.20
2023-05-06T03:38:47.423Z,50.90
2023-05-06T03:41:14.281Z,56.08
2023-05-06T03:43:41.385Z,47.03
2023-05-06T03:46:08.434Z,46.65
2023-05-06T03:48:36.634Z,51.20
2023-05-06T03:51:06.673Z,47.47
2023-05-06T03:53:33.395Z,46.78
2023-05-06T03:56:01.651Z,47.90
2023-05-06T03:58:29.573Z,51.67
2023-05-06T04:00:56.563Z,48.58
2023-05-06T04:03:23.417Z,53.60
2023-05-06T04:05:51.702Z,45.78
2023-05-06T04:08:22.711Z,51.45
2023-05-06T04:10:49.484Z,52.30
2023-05-06T04:13:24.968Z,52.30
2023-05-06T04:15:52.675Z,60.95
2023-05-06T04:18:23.900Z,51.42
2023-05-06T04:21:04.189Z,57.80
2023-05-06T04:23:34.582Z,55.60
2023-05-06T04:26:01.455Z,51.83
2023-05-06T04:28:30.953Z,53.42
2023-05-06T04:30:58.403Z,66.97
2023-05-06T04:33:34.904Z,52.17
2023-05-06T04:36:06.626Z,48.20
2023-05-06T04:38:37.322Z,57.72
2023-05-06T04:41:05.554Z,48.90
2023-05-06T04:43:33.224Z,52.45
2023-05-06T04:46:08.465Z,55.65
2023-05-06T04:48:37.840Z,53.65
2023-05-06T04:51:05.588Z,51.20
2023-05-06T04:53:33.395Z,59.30
2023-05-06T04:56:00.327Z,57.38
2023-05-06T04:58:27.490Z,51.88
2023-05-06T05:00:57.209Z,53.25
2023-05-06T05:03:24.288Z,56.90
2023-05-06T05:05:53.662Z,56.42
2023-05-06T05:08:20.433Z,64.85
2023-05-06T05:10:47.404Z,52.55
2023-05-06T05:13:19.355Z,53.97
2023-05-06T05:15:46.183Z,49.17
2023-05-06T05:18:14.592Z,66.97
2023-05-06T05:20:41.984Z,53.30
2023-05-06T05:23:11.504Z,57.33
2023-05-06T05:25:38.581Z,50.33
2023-05-06T05:28:05.814Z,48.60
2023-05-06T05:30:34.311Z,51.22
2023-05-06T05:33:01.452Z,47.22
2023-05-06T05:35:28.434Z,49.22
2023-05-06T05:37:56.216Z,46.83
2023-05-06T05:40:23.897Z,56.50
2023-05-06T05:42:54.304Z,50.08
2023-05-06T05:45:30.597Z,47.80
2023-05-06T05:47:57.592Z,49.03
2023-05-06T05:50:26.088Z,52.63
2023-05-06T05:52:53.845Z,46.40
2023-05-06T05:55:21.898Z,61.22
2023-05-06T05:57:50.187Z,50.60
2023-05-06T06:00:18.530Z,41.92
2023-05-06T06:02:45.320Z,42.92
2023-05-06T06:05:14.954Z,55.17
2023-05-06T06:07:41.932Z,48.22
2023-05-06T06:10:08.814Z,49.60
2023-05-06T06:12:35.836Z,49.33
2023-05-06T06:15:04.410Z,43.30
2023-05-06T06:17:32.598Z,45.22
2023-05-06T06:19:59.675Z,49.80
2023-05-06T06:22:26.531Z,46.92
2023-05-06T06:24:55.456Z,42.00
2023-05-06T06:27:22.222Z,45.78
2023-05-06T06:29:49.872Z,44.60
2023-05-06T06:32:16.927Z,40.95
2023-05-06T06:34:43.702Z,42.05
2023-05-06T06:37:12.770Z,38.65
2023-05-06T06:39:39.519Z,49.63
2023-05-06T06:42:07.000Z,43.28
2023-05-06T06:44:49.414Z,44.38
2023-05-06T06:47:16.218Z,51.10
2023-05-06T06:49:42.899Z,51.03
2023-05-06T06:52:09.529Z,46.70
2023-05-06T06:54:38.676Z,45.15
2023-05-06T06:57:06.836Z,45.28
2023-05-06T06:59:33.766Z,42.55
2023-05-06T07:02:00.947Z,42.97
2023-05-06T07:04:27.616Z,42.38
2023-05-06T07:06:54.346Z,42.75
2023-05-06T07:09:21.016Z,39.67
2023-05-06T07:11:47.759Z,49.28
2023-05-06T07:14:14.456Z,45.90
2023-05-06T07:16:41.859Z,44.92
2023-05-06T07:19:09.293Z,45.42
2023-05-06T07:21:36.016Z,44.72
2023-05-06T07:24:02.724Z,48.50
2023-05-06T07:26:29.468Z,39.75
2023-05-06T07:28:56.125Z,41.70
2023-05-06T07:31:22.918Z,42.30
2023-05-06T07:33:49.893Z,42.83
2023-05-06T07:36:17.036Z,39.35
2023-05-06T07:38:43.712Z,39.05
2023-05-06T07:41:10.430Z,37.63
2023-05-06T07:43:37.136Z,38.95
2023-05-06T07:46:04.182Z,41.50
2023-05-06T07:48:31.609Z,40.30
2023-05-06T07:50:58.706Z,41.83
2023-05-06T07:53:26.032Z,36.30
2023-05-06T07:55:57.094Z,39.72
2023-05-06T07:58:23.928Z,35.33
2023-05-06T08:00:50.786Z,38.38
2023-05-06T08:03:17.625Z,46.83
2023-05-06T08:05:44.460Z,39.97
2023-05-06T08:08:11.185Z,38.58
2023-05-06T08:10:37.935Z,40.42
2023-05-06T08:13:04.660Z,39.50
2023-05-06T08:15:31.377Z,37.78
2023-05-06T08:18:00.337Z,38.25
2023-05-06T08:20:33.959Z,40.78
2023-05-06T08:23:01.017Z,36.10
2023-05-06T08:25:27.699Z,37.45
2023-05-06T08:27:54.439Z,36.95
2023-05-06T08:30:21.370Z,29.70
2023-05-06T08:32:48.103Z,34.47
2023-05-06T08:35:14.792Z,33.13
2023-05-06T08:37:41.549Z,35.00
2023-05-06T08:40:19.441Z,35.78
2023-05-06T08:42:49.667Z,31.85
2023-05-06T08:45:17.159Z,34.15
2023-05-06T08:47:43.889Z,28.23
2023-05-06T08:50:12.347Z,29.40
2023-05-06T08:52:39.760Z,28.58
2023-05-06T08:55:07.768Z,23.95
2023-05-06T08:57:35.654Z,23.30
2023-05-06T09:00:02.761Z,22.80
2023-05-06T09:02:29.486Z,25.02
2023-05-06T09:04:56.950Z,31.42
2023-05-06T09:07:24.411Z,24.30
2023-05-06T09:09:51.481Z,25.15
2023-05-06T09:12:18.449Z,24.33
2023-05-06T09:14:46.680Z,23.70
2023-05-06T09:17:27.168Z,18.85
2023-05-06T09:19:56.865Z,26.35
2023-05-06T09:22:24.493Z,18.45
2023-05-06T09:24:56.376Z,18.55
2023-05-06T09:27:27.979Z,17.93
2023-05-06T09:30:12.001Z,15.88
2023-05-06T09:32:40.519Z,10.20
2023-05-06T09:35:09.539Z,12.55
2023-05-06T09:37:36.575Z,11.85
2023-05-06T09:40:03.432Z,13.73
2023-05-06T09:42:32.000Z,14.82
2023-05-06T09:45:02.431Z,16.27
2023-05-06T09:47:35.389Z,12.80
2023-05-06T09:50:03.348Z,16.65
2023-05-06T09:52:31.561Z,13.55
2023-05-06T09:54:58.676Z,19.52
2023-05-06T09:57:26.154Z,18.85
2023-05-06T09:59:54.063Z,14.40
2023-05-06T10:02:23.160Z,13.43
2023-05-06T10:04:51.108Z,10.50
2023-05-06T10:07:22.659Z,15.63
2023-05-06T10:09:51.301Z,13.15
2023-05-06T10:12:19.074Z,11.32
2023-05-06T10:14:46.175Z,13.85
2023-05-06T10:17:13.767Z,11.60
2023-05-06T10:19:45.608Z,10.40
2023-05-06T10:22:36.348Z,6.72
2023-05-06T10:25:06.866Z,11.57
2023-05-06T10:27:36.408Z,12.93
2023-05-06T10:30:03.371Z,7.18
2023-05-06T10:32:32.608Z,13.32
2023-05-06T10:35:06.184Z,10.55
2023-05-06T10:37:33.745Z,8.10
2023-05-06T10:40:00.749Z,7.70
2023-05-06T10:42:30.559Z,8.77
2023-05-06T10:44:58.968Z,12.45
2023-05-06T10:47:26.282Z,10.45
2023-05-06T10:50:18.631Z,25.88
2023-05-06T10:52:45.876Z,10.80
2023-05-06T10:55:35.893Z,8.40
2023-05-06T10:58:18.859Z,8.10
2023-05-06T11:00:55.547Z,12.57
2023-05-06T11:03:23.718Z,6.70
2023-05-06T11:05:51.944Z,6.90
2023-05-06T11:08:23.396Z,8.35
2023-05-06T11:10:50.083Z,7.65
2023-05-06T11:13:26.948Z,8.55
2023-05-06T11:15:54.906Z,8.15
2023-05-06T11:18:24.352Z,6.85
2023-05-06T11:20:51.722Z,13.40
2023-05-06T11:23:19.182Z,14.90
2023-05-06T11:25:49.092Z,5.72
2023-05-06T11:28:16.127Z,7.25
2023-05-06T11:30:44.067Z,8.48
2023-05-06T11:33:18.612Z,7.18
2023-05-06T11:35:45.620Z,10.70
2023-05-06T11:38:12.351Z,6.90
2023-05-06T11:40:41.414Z,6.88
2023-05-06T11:43:11.362Z,6.35
2023-05-06T11:45:48.309Z,5.40
2023-05-06T11:48:15.968Z,11.90
2023-05-06T11:50:49.293Z,9.32
2023-05-06T11:53:21.064Z,5.95
2023-05-06T11:55:48.622Z,9.07
2023-05-06T11:58:16.637Z,7.22
2023-05-06T12:00:51.856Z,5.65
2023-05-06T12:03:19.915Z,6.45
2023-05-06T12:05:50.071Z,6.22
2023-05-06T12:08:27.873Z,7.63
2023-05-06T12:10:55.917Z,22.38
2023-05-06T12:13:22.672Z,25.38
2023-05-06T12:15:52.152Z,12.32
2023-05-06T12:18:18.925Z,13.27
2023-05-06T12:20:45.677Z,10.20
2023-05-06T12:23:15.910Z,4.88
2023-05-06T12:25:44.481Z,5.35
2023-05-06T12:28:24.101Z,5.55
2023-05-06T12:30:51.123Z,5.85
2023-05-06T12:33:17.823Z,7.47
2023-05-06T12:35:44.490Z,8.88
2023-05-06T12:38:15.574Z,75.45
2023-05-06T12:40:43.391Z,53.42
2023-05-06T12:43:10.716Z,44.38
2023-05-06T12:45:41.426Z,7.78
2023-05-06T12:48:16.065Z,7.70
2023-05-06T12:50:44.176Z,3.55
2023-05-06T12:53:13.206Z,4.85
2023-05-06T12:55:45.192Z,7.88
2023-05-06T12:58:19.107Z,5.45
2023-05-06T13:00:46.217Z,5.15
2023-05-06T13:03:13.745Z,4.07
2023-05-06T13:05:40.590Z,5.57
2023-05-06T13:08:07.370Z,5.75
2023-05-06T13:10:34.028Z,8.77
2023-05-06T13:13:00.943Z,6.90
2023-05-06T13:15:27.620Z,4.85
2023-05-06T13:17:54.313Z,7.25
2023-05-06T13:20:23.495Z,6.03
2023-05-06T13:22:54.656Z,3.30
2023-05-06T13:25:22.270Z,5.35
2023-05-06T13:27:49.273Z,4.95
2023-05-06T13:30:16.801Z,6.30
2023-05-06T13:32:43.544Z,5.80
2023-05-06T13:35:10.565Z,8.43
2023-05-06T13:37:37.626Z,7.15
2023-05-06T13:40:04.866Z,4.13
2023-05-06T13:42:31.648Z,3.65
2023-05-06T13:44:58.430Z,8.25
2023-05-06T13:47:25.230Z,6.45
2023-05-06T13:49:51.900Z,4.80
2023-05-06T13:52:19.249Z,5.10
2023-05-06T13:54:46.160Z,9.05
2023-05-06T13:57:12.867Z,8.07
2023-05-06T13:59:39.565Z,6.68
2023-05-06T14:02:09.364Z,3.25
2023-05-06T14:04:36.602Z,4.50
2023-05-06T14:07:03.369Z,10.73
2023-05-06T14:09:30.079Z,7.13
2023-05-06T14:11:56.723Z,7.60
2023-05-06T14:14:23.411Z,4.05
2023-05-06T14:16:53.279Z,4.53
2023-05-06T14:19:20.065Z,9.23
2023-05-06T14:21:46.751Z,12.52
2023-05-06T14:24:13.413Z,4.20
2023-05-06T14:26:40.910Z,3.22
2023-05-06T14:29:07.695Z,5.60
2023-05-06T14:31:34.475Z,6.45
2023-05-06T14:34:01.899Z,5.10
2023-05-06T14:36:28.632Z,4.82
2023-05-06T14:38:55.369Z,6.45
2023-05-06T14:41:21.996Z,9.55
2023-05-06T14:43:48.704Z,6.95
2023-05-06T14:46:16.185Z,5.00
2023-05-06T14:48:43.625Z,6.38
2023-05-06T14:51:10.450Z,7.13
2023-05-06T14:53:37.159Z,7.40
2023-05-06T14:56:03.943Z,6.15
2023-05-06T14:58:30.760Z,8.15
2023-05-06T15:00:57.491Z,5.72
2023-05-06T15:03:24.227Z,3.92
2023-05-06T15:05:51.148Z,5.82
2023-05-06T15:08:18.051Z,4.53
2023-05-06T15:10:44.856Z,8.65
2023-05-06T15:13:11.670Z,6.22
2023-05-06T15:15:38.344Z,6.60
2023-05-06T15:18:05.076Z,8.43
2023-05-06T15:20:31.914Z,4.75
2023-05-06T15:22:59.213Z,3.88
2023-05-06T15:25:34.782Z,5.50
2023-05-06T15:28:02.803Z,3.83
2023-05-06T15:30:29.465Z,5.28
2023-05-06T15:32:56.205Z,5.22
2023-05-06T15:35:22.980Z,4.03
2023-05-06T15:37:49.802Z,4.57
2023-05-06T15:40:16.938Z,3.40
2023-05-06T15:42:43.668Z,5.95
2023-05-06T15:45:12.097Z,4.32
2023-05-06T15:47:38.828Z,3.58
2023-05-06T15:50:14.080Z,6.88
2023-05-06T15:52:47.848Z,5.97
2023-05-06T15:55:15.302Z,5.50
2023-05-06T15:57:43.692Z,11.35
2023-05-06T16:00:12.308Z,6.45
2023-05-06T16:02:39.484Z,4.28
2023-05-06T16:05:06.801Z,4.65
2023-05-06T16:07:33.805Z,6.30
2023-05-06T16:10:00.594Z,7.70
2023-05-06T16:12:27.276Z,7.40
2023-05-06T16:14:54.239Z,7.20
2023-05-06T16:17:21.031Z,4.95
2023-05-06T16:19:47.746Z,4.40
2023-05-06T16:22:14.472Z,5.30
2023-05-06T16:24:41.107Z,3.85
2023-05-06T16:27:07.887Z,5.63
2023-05-06T16:29:34.878Z,6.60
2023-05-06T16:32:01.937Z,4.72
2023-05-06T16:34:29.248Z,5.85
2023-05-06T16:36:57.217Z,6.38
2023-05-06T16:39:23.944Z,5.80
2023-05-06T16:41:50.686Z,6.53
2023-05-06T16:44:17.439Z,4.82
2023-05-06T16:46:44.172Z,5.10
2023-05-06T16:49:10.850Z,6.90
2023-05-06T16:51:37.569Z,6.13
2023-05-06T16:54:04.412Z,7.65
2023-05-06T16:56:43.907Z,6.05
2023-05-06T16:59:15.102Z,6.88
2023-05-06T17:01:41.866Z,5.65
2023-05-06T17:04:08.606Z,6.68
2023-05-06T17:06:35.504Z,6.57
2023-05-06T17:09:02.278Z,5.63
2023-05-06T17:11:29.135Z,4.70
2023-05-06T17:13:55.816Z,5.90
2023-05-06T17:16:22.925Z,8.10
2023-05-06T17:18:49.728Z,6.97
2023-05-06T17:21:16.456Z,5.45
2023-05-06T17:23:44.106Z,4.10
2023-05-06T17:26:10.872Z,4.15
2023-05-06T17:28:37.820Z,5.88
2023-05-06T17:31:04.842Z,7.65
2023-05-06T17:33:31.634Z,7.40
2023-05-06T17:35:58.335Z,6.18
2023-05-06T17:38:25.050Z,8.75
2023-05-06T17:40:51.954Z,5.00
2023-05-06T17:43:19.039Z,7.65
2023-05-06T17:45:45.949Z,4.65
2023-05-06T17:48:12.718Z,9.85
2023-05-06T17:50:39.419Z,5.63
2023-05-06T17:53:06.272Z,7.60
2023-05-06T17:55:33.050Z,7.35
2023-05-06T17:57:59.918Z,7.10
2023-05-06T18:00:26.888Z,7.93
2023-05-06T18:02:54.901Z,7.43
2023-05-06T18:05:27.876Z,6.90
2023-05-06T18:07:54.586Z,4.38
2023-05-06T18:10:21.616Z,4.82
2023-05-06T18:12:48.430Z,8.18
2023-05-06T18:15:15.152Z,9.07
2023-05-06T18:17:41.914Z,5.72
2023-05-06T18:20:10.070Z,9.90
2023-05-06T18:22:36.938Z,11.23
2023-05-06T18:25:04.384Z,7.40
2023-05-06T18:27:32.249Z,6.13
2023-05-06T18:29:59.344Z,5.38
2023-05-06T18:32:26.133Z,7.30
2023-05-06T18:34:52.948Z,7.97
2023-05-06T18:37:19.595Z,4.82
2023-05-06T18:39:46.340Z,6.40
2023-05-06T18:42:13.157Z,11.18
2023-05-06T18:44:39.884Z,5.45
2023-05-06T18:47:06.592Z,11.15
2023-05-06T18:49:33.321Z,9.38
2023-05-06T18:52:00.051Z,8.02
2023-05-06T18:54:26.722Z,9.18
2023-05-06T18:56:54.575Z,6.00
2023-05-06T18:59:21.605Z,8.75
2023-05-06T19:01:48.395Z,6.97
2023-05-06T19:04:15.140Z,12.90
2023-05-06T19:06:42.332Z,8.48
2023-05-06T19:09:09.103Z,6.95
2023-05-06T19:11:35.855Z,5.72
2023-05-06T19:14:02.755Z,6.45
2023-05-06T19:16:29.503Z,10.48
2023-05-06T19:18:56.246Z,6.13
2023-05-06T19:21:23.001Z,7.32
2023-05-06T19:23:49.765Z,7.57
2023-05-06T19:26:16.451Z,10.88
2023-05-06T19:28:43.163Z,8.35
2023-05-06T19:31:10.740Z,8.32
2023-05-06T19:33:38.792Z,9.30
2023-05-06T19:36:06.043Z,5.65
2023-05-06T19:38:32.792Z,6.65
2023-05-06T19:40:59.500Z,6.35
2023-05-06T19:43:26.307Z,8.35
2023-05-06T19:45:53.075Z,8.20
2023-05-06T19:48:20.608Z,7.43
2023-05-06T19:50:47.335Z,10.00
2023-05-06T19:53:14.011Z,7.45
2023-05-06T19:55:41.007Z,8.65
2023-05-06T19:58:07.867Z,13.30
2023-05-06T20:00:34.581Z,8.88
2023-05-06T20:03:01.511Z,11.25
2023-05-06T20:05:30.852Z,7.47
2023-05-06T20:07:59.624Z,11.85
2023-05-06T20:10:27.277Z,17.40
2023-05-06T20:12:56.074Z,7.72
2023-05-06T20:15:24.133Z,8.48
2023-05-06T20:17:50.910Z,10.55
2023-05-06T20:20:17.645Z,10.45
2023-05-06T20:22:44.454Z,8.80
2023-05-06T20:25:14.329Z,9.38
2023-05-06T20:27:41.076Z,11.68
2023-05-06T20:30:09.691Z,8.43
2023-05-06T20:32:37.787Z,9.20
2023-05-06T20:35:05.363Z,11.40
2023-05-06T20:37:33.848Z,12.32
2023-05-06T20:40:00.794Z,11.85
2023-05-06T20:42:27.847Z,17.20
2023-05-06T20:44:54.493Z,13.52
2023-05-06T20:47:21.297Z,10.20
2023-05-06T20:49:48.067Z,15.70
2023-05-06T20:52:14.881Z,15.68
2023-05-06T20:54:42.985Z,10.95
2023-05-06T20:57:10.264Z,13.93
2023-05-06T20:59:37.119Z,12.90
2023-05-06T21:02:04.151Z,12.63
2023-05-06T21:04:30.997Z,11.43
2023-05-06T21:06:57.827Z,12.30
2023-05-06T21:09:26.172Z,15.02
2023-05-06T21:11:52.920Z,13.93
2023-05-06T21:14:19.773Z,10.82
2023-05-06T21:16:46.519Z,14.50
2023-05-06T21:19:16.090Z,10.68
2023-05-06T21:21:42.987Z,9.27
2023-05-06T21:24:09.981Z,11.98
2023-05-06T21:26:36.819Z,12.70
2023-05-06T21:29:03.578Z,15.73
2023-05-06T21:31:30.560Z,11.43
2023-05-06T21:33:58.789Z,15.43
2023-05-06T21:36:26.070Z,13.10
2023-05-06T21:39:02.094Z,12.27
2023-05-06T21:41:28.776Z,15.70
2023-05-06T21:43:55.554Z,12.45
2023-05-06T21:46:22.541Z,12.35
2023-05-06T21:48:49.320Z,13.57
2023-05-06T21:51:16.082Z,13.23
2023-05-06T21:53:43.011Z,11.43
2023-05-06T21:56:09.757Z,9.77
2023-05-06T21:58:36.486Z,13.30
2023-05-06T22:01:03.902Z,15.73
2023-05-06T22:03:30.885Z,15.93
2023-05-06T22:05:57.648Z,11.07
2023-05-06T22:08:25.099Z,13.57
2023-05-06T22:10:52.748Z,13.15
2023-05-06T22:13:19.446Z,14.60
2023-05-06T22:15:46.237Z,16.33
2023-05-06T22:18:13.752Z,12.93
2023-05-06T22:20:41.534Z,11.68
2023-05-06T22:23:12.181Z,12.90
2023-05-06T22:25:39.142Z,10.45
2023-05-06T22:28:06.180Z,12.18
2023-05-06T22:30:32.961Z,9.75
2023-05-06T22:32:59.686Z,20.48
2023-05-06T22:35:26.620Z,12.18
2023-05-06T22:37:53.384Z,10.90
2023-05-06T22:40:20.167Z,15.98
2023-05-06T22:42:48.248Z,13.45
2023-05-06T22:45:15.075Z,9.32
2023-05-06T22:47:41.854Z,10.65
2023-05-06T22:50:09.022Z,13.13
2023-05-06T22:52:35.906Z,12.00
2023-05-06T22:55:02.815Z,11.25
2023-05-06T22:57:29.591Z,10.82
2023-05-06T22:59:56.442Z,13.48
2023-05-06T23:02:23.455Z,10.68
2023-05-06T23:04:50.535Z,9.07
2023-05-06T23:07:17.538Z,12.55
2023-05-06T23:09:44.224Z,16.05
2023-05-06T23:12:10.927Z,9.80
2023-05-06T23:14:37.768Z,12.27
2023-05-06T23:17:04.749Z,10.88
2023-05-06T23:19:31.538Z,8.52
2023-05-06T23:21:58.292Z,11.52
2023-05-06T23:24:24.974Z,12.52
2023-05-06T23:26:51.971Z,11.70
2023-05-06T23:29:18.715Z,11.57
2023-05-06T23:31:45.598Z,13.25
2023-05-06T23:34:12.365Z,12.43
2023-05-06T23:36:39.003Z,8.93
2023-05-06T23:39:05.821Z,10.10
2023-05-06T23:41:32.552Z,11.88
2023-05-06T23:43:59.301Z,12.88
2023-05-06T23:46:26.249Z,12.05
2023-05-06T23:48:52.984Z,14.98
2023-05-06T23:51:19.904Z,14.48
2023-05-06T23:53:46.986Z,11.13
2023-05-06T23:56:13.915Z,14.65
2023-05-06T23:58:40.784Z,8.23
